Terminal Aerodrome Forecast
Issued by NWS

Home | Current Version | Previous Version | Text Only | Print | Product List | Glossary On
Versions: 1 2 3 4 5 6 7 8 9 10 11 12 13 14 15 16 17 18
000
FTUS43 KSGF 261300 AAA
TAFJLN
TAF AMD
KJLN 261346Z 2614/2712 18014KT P6SM SCT035 BKN200 WS020/22050KT
     FM261600 18011KT P6SM BKN025
     FM262200 17010KT P6SM -DZ BKN010 OVC020
     FM270000 17010KT 4SM -RADZ BR OVC006
     FM270200 20010KT 2SM -RADZ BR OVC004
     FM270800 29010KT 2SM -DZ BR OVC007=

USA.gov is the U.S. government's official web portal to all federal, state and local government web resources and services.